N66M KPSP-KTOA
Flight info
| Callsign | N66M |
|---|---|
| Flight time | 0h 25m |
| Altitude | 12000 |
| Route | PSP V388 DEWAY FRETS KAYOH8 |
| Aircraft | E55P/L-VGDW/C |
Departure
| Time | 2026-05-07 02:52 |
|---|---|
| Airport | Palm Springs International Airport (KPSP) |
Arrival
| Time | 2026-05-07 03:17 |
|---|---|
| Airport | Zamperini Field (KTOA) |
| Time | Latitude | Longitude | Altitude | Speed | Heading |
|---|---|---|---|---|---|
| 2026-05-07 02:20 | 33.82558 | -116.50790 | 512 ft | 0 kts | 272° |
| 2026-05-07 02:45 | 33.82558 | -116.50793 | 512 ft | 1 kts | 274° |
| 2026-05-07 02:45 | 33.82559 | -116.50809 | 512 ft | 2 kts | 264° |
| 2026-05-07 02:45 | 33.82540 | -116.50813 | 512 ft | 4 kts | 116° |
| 2026-05-07 02:45 | 33.82535 | -116.50758 | 511 ft | 8 kts | 92° |
| 2026-05-07 02:46 | 33.82533 | -116.50678 | 509 ft | 10 kts | 96° |
| 2026-05-07 02:46 | 33.82534 | -116.50590 | 508 ft | 11 kts | 131° |
| 2026-05-07 02:46 | 33.82462 | -116.50522 | 504 ft | 15 kts | 141° |
| 2026-05-07 02:46 | 33.82360 | -116.50434 | 500 ft | 20 kts | 145° |
| 2026-05-07 02:47 | 33.82239 | -116.50323 | 496 ft | 23 kts | 143° |
| 2026-05-07 02:47 | 33.82110 | -116.50207 | 490 ft | 22 kts | 143° |
| 2026-05-07 02:47 | 33.81986 | -116.50097 | 486 ft | 14 kts | 145° |
| 2026-05-07 02:47 | 33.81909 | -116.50030 | 483 ft | 13 kts | 144° |
| 2026-05-07 02:48 | 33.81855 | -116.49958 | 481 ft | 9 kts | 99° |
| 2026-05-07 02:48 | 33.81853 | -116.49904 | 481 ft | 2 kts | 89° |
| 2026-05-07 02:48 | 33.81853 | -116.49903 | 481 ft | 0 kts | 89° |
| 2026-05-07 02:49 | 33.81853 | -116.49897 | 481 ft | 1 kts | 89° |
| 2026-05-07 02:49 | 33.81853 | -116.49869 | 481 ft | 4 kts | 90° |
| 2026-05-07 02:49 | 33.81866 | -116.49826 | 481 ft | 6 kts | 39° |
| 2026-05-07 02:50 | 33.81905 | -116.49824 | 482 ft | 5 kts | 335° |
| 2026-05-07 02:50 | 33.81920 | -116.49834 | 482 ft | 0 kts | 327° |
| 2026-05-07 02:50 | 33.81921 | -116.49835 | 482 ft | 2 kts | 327° |
| 2026-05-07 02:51 | 33.81966 | -116.49873 | 483 ft | 13 kts | 323° |
| 2026-05-07 02:51 | 33.82196 | -116.50080 | 488 ft | 77 kts | 323° |
| 2026-05-07 02:51 | 33.82806 | -116.50626 | 528 ft | 135 kts | 325° |
| 2026-05-07 02:51 | 33.83620 | -116.51299 | 997 ft | 151 kts | 324° |
| 2026-05-07 02:52 | 33.84440 | -116.52210 | 1468 ft | 176 kts | 321° |
| 2026-05-07 02:52 | 33.85459 | -116.53186 | 2016 ft | 196 kts | 321° |
| 2026-05-07 02:52 | 33.86551 | -116.54235 | 2661 ft | 209 kts | 321° |
| 2026-05-07 02:52 | 33.87719 | -116.55356 | 3300 ft | 222 kts | 321° |
| 2026-05-07 02:53 | 33.89010 | -116.56416 | 3966 ft | 234 kts | 339° |
| 2026-05-07 02:53 | 33.90628 | -116.56392 | 4671 ft | 246 kts | 20° |
| 2026-05-07 02:53 | 33.91949 | -116.55079 | 5383 ft | 258 kts | 56° |
| 2026-05-07 02:53 | 33.92500 | -116.53028 | 6083 ft | 267 kts | 83° |
| 2026-05-07 02:54 | 33.92345 | -116.50781 | 6743 ft | 276 kts | 112° |
| 2026-05-07 02:54 | 33.91266 | -116.48901 | 7447 ft | 273 kts | 130° |
| 2026-05-07 02:54 | 33.90081 | -116.47134 | 8107 ft | 270 kts | 129° |
| 2026-05-07 02:54 | 33.88820 | -116.45484 | 8772 ft | 267 kts | 133° |
| 2026-05-07 02:55 | 33.87592 | -116.43800 | 9438 ft | 271 kts | 130° |
| 2026-05-07 02:55 | 33.86525 | -116.41928 | 10107 ft | 275 kts | 115° |
| 2026-05-07 02:55 | 33.85643 | -116.39912 | 10760 ft | 280 kts | 127° |
| 2026-05-07 02:55 | 33.84074 | -116.38559 | 11408 ft | 286 kts | 161° |
| 2026-05-07 02:56 | 33.82093 | -116.38465 | 11953 ft | 294 kts | 193° |
| 2026-05-07 02:56 | 33.80221 | -116.39638 | 12094 ft | 311 kts | 223° |
| 2026-05-07 02:56 | 33.79069 | -116.41770 | 12092 ft | 308 kts | 255° |
| 2026-05-07 02:56 | 33.78974 | -116.44282 | 12094 ft | 301 kts | 287° |
| 2026-05-07 02:57 | 33.79723 | -116.46613 | 12101 ft | 301 kts | 295° |
| 2026-05-07 02:57 | 33.80670 | -116.48844 | 12108 ft | 301 kts | 307° |
| 2026-05-07 02:57 | 33.81860 | -116.51041 | 12166 ft | 321 kts | 308° |
| 2026-05-07 02:57 | 33.83154 | -116.53329 | 12176 ft | 346 kts | 308° |
| 2026-05-07 02:58 | 33.84478 | -116.55867 | 12133 ft | 364 kts | 300° |
| 2026-05-07 02:58 | 33.85529 | -116.58618 | 12052 ft | 368 kts | 304° |
| 2026-05-07 02:58 | 33.87100 | -116.61070 | 11878 ft | 364 kts | 320° |
| 2026-05-07 02:58 | 33.88959 | -116.63069 | 11844 ft | 353 kts | 320° |
| 2026-05-07 02:59 | 33.90712 | -116.65006 | 11840 ft | 343 kts | 321° |
| 2026-05-07 02:59 | 33.92388 | -116.67080 | 11824 ft | 340 kts | 307° |
| 2026-05-07 02:59 | 33.93270 | -116.69765 | 11890 ft | 360 kts | 288° |
| 2026-05-07 02:59 | 33.93582 | -116.72831 | 11894 ft | 380 kts | 267° |
| 2026-05-07 03:00 | 33.92898 | -116.75916 | 11941 ft | 384 kts | 254° |
| 2026-05-07 03:00 | 33.92286 | -116.79041 | 11939 ft | 382 kts | 257° |
| 2026-05-07 03:00 | 33.91637 | -116.82139 | 11978 ft | 382 kts | 259° |
| 2026-05-07 03:00 | 33.91012 | -116.85249 | 12026 ft | 382 kts | 258° |
| 2026-05-07 03:01 | 33.90400 | -116.88362 | 12089 ft | 380 kts | 258° |
| 2026-05-07 03:01 | 33.89778 | -116.91454 | 12169 ft | 380 kts | 258° |
| 2026-05-07 03:01 | 33.89159 | -116.94539 | 12185 ft | 383 kts | 258° |
| 2026-05-07 03:01 | 33.88532 | -116.97671 | 12192 ft | 387 kts | 258° |
| 2026-05-07 03:02 | 33.87907 | -117.00784 | 12160 ft | 387 kts | 258° |
| 2026-05-07 03:02 | 33.87272 | -117.03940 | 12037 ft | 383 kts | 258° |
| 2026-05-07 03:02 | 33.86649 | -117.07039 | 12018 ft | 382 kts | 258° |
| 2026-05-07 03:02 | 33.86026 | -117.10120 | 12011 ft | 382 kts | 258° |
| 2026-05-07 03:03 | 33.85396 | -117.13238 | 12003 ft | 381 kts | 258° |
| 2026-05-07 03:03 | 33.84777 | -117.16293 | 11970 ft | 370 kts | 258° |
| 2026-05-07 03:03 | 33.84174 | -117.19267 | 11961 ft | 365 kts | 258° |
| 2026-05-07 03:03 | 33.83578 | -117.22210 | 11955 ft | 361 kts | 258° |
| 2026-05-07 03:04 | 33.82978 | -117.25171 | 11957 ft | 367 kts | 258° |
| 2026-05-07 03:04 | 33.82368 | -117.28168 | 11963 ft | 370 kts | 258° |
| 2026-05-07 03:04 | 33.81752 | -117.31194 | 11962 ft | 373 kts | 258° |
| 2026-05-07 03:04 | 33.81137 | -117.34210 | 11960 ft | 375 kts | 258° |
| 2026-05-07 03:05 | 33.80513 | -117.37266 | 11957 ft | 377 kts | 258° |
| 2026-05-07 03:05 | 33.79886 | -117.40334 | 11960 ft | 379 kts | 258° |
| 2026-05-07 03:05 | 33.79260 | -117.43393 | 11961 ft | 380 kts | 258° |
| 2026-05-07 03:05 | 33.78624 | -117.46491 | 11964 ft | 381 kts | 258° |
| 2026-05-07 03:06 | 33.78017 | -117.49567 | 11961 ft | 381 kts | 262° |
| 2026-05-07 03:06 | 33.77975 | -117.52721 | 11982 ft | 377 kts | 275° |
| 2026-05-07 03:06 | 33.77989 | -117.55907 | 11978 ft | 378 kts | 274° |
| 2026-05-07 03:06 | 33.78034 | -117.59045 | 11984 ft | 378 kts | 273° |
| 2026-05-07 03:07 | 33.78061 | -117.62181 | 11989 ft | 378 kts | 274° |
| 2026-05-07 03:07 | 33.78085 | -117.65370 | 11984 ft | 378 kts | 273° |
| 2026-05-07 03:07 | 33.78108 | -117.68458 | 11791 ft | 368 kts | 273° |
| 2026-05-07 03:07 | 33.78129 | -117.71476 | 11282 ft | 352 kts | 273° |
| 2026-05-07 03:08 | 33.78148 | -117.74342 | 10756 ft | 337 kts | 273° |
| 2026-05-07 03:08 | 33.78169 | -117.77083 | 10274 ft | 324 kts | 273° |
| 2026-05-07 03:08 | 33.78178 | -117.79748 | 9787 ft | 314 kts | 270° |
| 2026-05-07 03:08 | 33.77575 | -117.82210 | 9291 ft | 310 kts | 239° |
| 2026-05-07 03:09 | 33.76093 | -117.84039 | 8832 ft | 303 kts | 220° |
| 2026-05-07 03:09 | 33.74508 | -117.85669 | 8297 ft | 296 kts | 221° |
| 2026-05-07 03:09 | 33.72946 | -117.87270 | 7762 ft | 291 kts | 221° |
| 2026-05-07 03:09 | 33.71426 | -117.88820 | 7234 ft | 285 kts | 221° |
| 2026-05-07 03:10 | 33.69941 | -117.90334 | 6797 ft | 277 kts | 223° |
| 2026-05-07 03:10 | 33.68900 | -117.92203 | 6394 ft | 265 kts | 256° |
| 2026-05-07 03:10 | 33.68789 | -117.94363 | 5989 ft | 258 kts | 271° |
| 2026-05-07 03:10 | 33.68801 | -117.96474 | 5573 ft | 254 kts | 271° |
| 2026-05-07 03:11 | 33.68821 | -117.98599 | 5084 ft | 253 kts | 271° |
| 2026-05-07 03:11 | 33.68846 | -118.00714 | 4513 ft | 254 kts | 271° |
| 2026-05-07 03:11 | 33.68872 | -118.02812 | 3949 ft | 255 kts | 271° |
| 2026-05-07 03:11 | 33.69005 | -118.04908 | 3447 ft | 252 kts | 276° |
| 2026-05-07 03:12 | 33.69179 | -118.06996 | 2925 ft | 251 kts | 276° |
| 2026-05-07 03:12 | 33.69360 | -118.09060 | 2512 ft | 245 kts | 276° |
| 2026-05-07 03:12 | 33.69535 | -118.11065 | 2115 ft | 240 kts | 276° |
| 2026-05-07 03:12 | 33.69706 | -118.13013 | 1978 ft | 229 kts | 276° |
| 2026-05-07 03:13 | 33.69868 | -118.14861 | 1962 ft | 222 kts | 276° |
| 2026-05-07 03:13 | 33.70027 | -118.16684 | 1959 ft | 211 kts | 276° |
| 2026-05-07 03:13 | 33.70212 | -118.18373 | 1955 ft | 203 kts | 287° |
| 2026-05-07 03:13 | 33.70979 | -118.19753 | 1979 ft | 195 kts | 309° |
| 2026-05-07 03:14 | 33.71820 | -118.21018 | 1967 ft | 190 kts | 308° |
| 2026-05-07 03:14 | 33.72612 | -118.22207 | 2006 ft | 173 kts | 308° |
| 2026-05-07 03:14 | 33.74092 | -118.24431 | 1983 ft | 167 kts | 308° |
| 2026-05-07 03:15 | 33.74775 | -118.25473 | 1919 ft | 154 kts | 306° |
| 2026-05-07 03:15 | 33.75405 | -118.26468 | 1724 ft | 149 kts | 308° |
| 2026-05-07 03:15 | 33.76039 | -118.27419 | 1514 ft | 144 kts | 307° |
| 2026-05-07 03:15 | 33.76659 | -118.28348 | 1298 ft | 141 kts | 307° |
| 2026-05-07 03:16 | 33.77274 | -118.29260 | 1093 ft | 138 kts | 308° |
| 2026-05-07 03:16 | 33.77856 | -118.30108 | 941 ft | 129 kts | 307° |
| 2026-05-07 03:16 | 33.78408 | -118.30933 | 754 ft | 123 kts | 306° |
| 2026-05-07 03:16 | 33.78929 | -118.31728 | 547 ft | 120 kts | 305° |
| 2026-05-07 03:17 | 33.79442 | -118.32507 | 351 ft | 114 kts | 306° |
| 2026-05-07 03:17 | 33.79920 | -118.33226 | 148 ft | 106 kts | 305° |
| 2026-05-07 03:17 | 33.80340 | -118.33868 | 97 ft | 88 kts | 309° |
| 2026-05-07 03:17 | 33.80629 | -118.34302 | 91 ft | 48 kts | 309° |
| 2026-05-07 03:18 | 33.80770 | -118.34511 | 87 ft | 16 kts | 308° |
| 2026-05-07 03:18 | 33.80770 | -118.34591 | 87 ft | 9 kts | 221° |
| 2026-05-07 03:18 | 33.80722 | -118.34628 | 89 ft | 7 kts | 205° |
| 2026-05-07 03:18 | 33.80682 | -118.34650 | 91 ft | 6 kts | 207° |
| 2026-05-07 03:19 | 33.80630 | -118.34684 | 93 ft | 10 kts | 208° |
| 2026-05-07 03:19 | 33.80559 | -118.34714 | 96 ft | 9 kts | 140° |
| 2026-05-07 03:19 | 33.80528 | -118.34669 | 99 ft | 8 kts | 128° |
| 2026-05-07 03:19 | 33.80485 | -118.34604 | 101 ft | 13 kts | 128° |
| 2026-05-07 03:20 | 33.80421 | -118.34509 | 107 ft | 12 kts | 135° |
| 2026-05-07 03:20 | 33.80367 | -118.34480 | 111 ft | 5 kts | 133° |
| 2026-05-07 03:20 | 33.80358 | -118.34453 | 111 ft | 2 kts | 40° |
| 2026-05-07 03:20 | 33.80363 | -118.34449 | 111 ft | 0 kts | 37° |